sensor_id;sensor_type;location;lat;lon;timestamp;pressure;altitude;pressure_sealevel;temperature;humidity
78313;BME280;67568;47.438;21.408;2023-06-22T00:00:27;100660.38;;;20.96;84.86
78313;BME280;67568;47.438;21.408;2023-06-22T00:02:58;100665.47;;;21.06;84.29
78313;BME280;67568;47.438;21.408;2023-06-22T00:08:11;100658.16;;;21.05;84.54
78313;BME280;67568;47.438;21.408;2023-06-22T00:13:14;100662.91;;;21.01;85.23
78313;BME280;67568;47.438;21.408;2023-06-22T00:15:48;100664.38;;;20.95;85.44
78313;BME280;67568;47.438;21.408;2023-06-22T00:18:15;100688.53;;;20.96;85.27
78313;BME280;67568;47.438;21.408;2023-06-22T00:23:17;100702.09;;;21.06;84.87
78313;BME280;67568;47.438;21.408;2023-06-22T00:25:44;100712.16;;;21.07;84.24
78313;BME280;67568;47.438;21.408;2023-06-22T00:30:56;100693.72;;;20.94;84.33
78313;BME280;67568;47.438;21.408;2023-06-22T00:36:10;100690.63;;;20.99;84.02
78313;BME280;67568;47.438;21.408;2023-06-22T00:38:40;100709.81;;;21.09;83.62
78313;BME280;67568;47.438;21.408;2023-06-22T00:41:11;100696.88;;;21.08;83.09
78313;BME280;67568;47.438;21.408;2023-06-22T00:49:25;100690.78;;;21.22;83.07
78313;BME280;67568;47.438;21.408;2023-06-22T00:51:52;100673.06;;;21.22;82.81
78313;BME280;67568;47.438;21.408;2023-06-22T01:17:43;100710.63;;;21.10;85.29
78313;BME280;67568;47.438;21.408;2023-06-22T01:20:15;100695.25;;;21.07;86.31
78313;BME280;67568;47.438;21.408;2023-06-22T01:26:57;100743.25;;;21.11;86.24
78313;BME280;67568;47.438;21.408;2023-06-22T01:29:27;100744.53;;;21.14;85.46
78313;BME280;67568;47.438;21.408;2023-06-22T01:31:56;100725.06;;;21.08;85.40
78313;BME280;67568;47.438;21.408;2023-06-22T01:34:36;100736.00;;;21.10;85.87
78313;BME280;67568;47.438;21.408;2023-06-22T01:37:08;100733.53;;;21.08;85.68
78313;BME280;67568;47.438;21.408;2023-06-22T01:39:36;100711.63;;;21.02;85.27
78313;BME280;67568;47.438;21.408;2023-06-22T01:42:03;100719.28;;;21.01;85.55
78313;BME280;67568;47.438;21.408;2023-06-22T01:44:34;100720.53;;;21.04;85.40
78313;BME280;67568;47.438;21.408;2023-06-22T01:47:08;100697.00;;;20.96;85.66
78313;BME280;67568;47.438;21.408;2023-06-22T01:49:36;100687.72;;;20.96;86.16
78313;BME280;67568;47.438;21.408;2023-06-22T01:52:03;100674.00;;;20.94;85.25
78313;BME280;67568;47.438;21.408;2023-06-22T01:54:30;100663.66;;;20.82;86.40
78313;BME280;67568;47.438;21.408;2023-06-22T01:56:57;100658.94;;;20.86;85.86
78313;BME280;67568;47.438;21.408;2023-06-22T02:02:05;100644.75;;;20.83;85.83
78313;BME280;67568;47.438;21.408;2023-06-22T02:04:43;100666.75;;;20.93;85.57
78313;BME280;67568;47.438;21.408;2023-06-22T02:07:15;100681.28;;;20.95;85.09
78313;BME280;67568;47.438;21.408;2023-06-22T02:09:45;100694.19;;;20.96;85.32
78313;BME280;67568;47.438;21.408;2023-06-22T02:12:18;100692.25;;;21.00;85.38
78313;BME280;67568;47.438;21.408;2023-06-22T02:14:50;100680.63;;;21.02;85.63
78313;BME280;67568;47.438;21.408;2023-06-22T02:17:18;100692.38;;;20.88;86.42
78313;BME280;67568;47.438;21.408;2023-06-22T02:19:48;100680.28;;;20.87;86.24
78313;BME280;67568;47.438;21.408;2023-06-22T02:22:16;100668.66;;;20.89;85.65
78313;BME280;67568;47.438;21.408;2023-06-22T02:24:43;100691.34;;;20.80;87.26
78313;BME280;67568;47.438;21.408;2023-06-22T02:27:10;100693.75;;;20.78;87.33
78313;BME280;67568;47.438;21.408;2023-06-22T02:29:37;100704.63;;;20.80;86.67
78313;BME280;67568;47.438;21.408;2023-06-22T02:32:04;100718.97;;;20.75;86.36
78313;BME280;67568;47.438;21.408;2023-06-22T02:34:33;100714.53;;;20.74;86.98
78313;BME280;67568;47.438;21.408;2023-06-22T02:37:02;100714.72;;;20.81;86.04
78313;BME280;67568;47.438;21.408;2023-06-22T02:39:29;100719.63;;;20.84;85.99
78313;BME280;67568;47.438;21.408;2023-06-22T02:41:56;100720.25;;;20.77;86.41
78313;BME280;67568;47.438;21.408;2023-06-22T02:44:23;100716.28;;;20.78;86.49
78313;BME280;67568;47.438;21.408;2023-06-22T02:46:56;100726.59;;;20.58;87.81
78313;BME280;67568;47.438;21.408;2023-06-22T02:49:28;100735.41;;;20.57;88.48
78313;BME280;67568;47.438;21.408;2023-06-22T02:51:58;100740.06;;;20.65;87.64
78313;BME280;67568;47.438;21.408;2023-06-22T02:54:24;100747.50;;;20.73;87.77
78313;BME280;67568;47.438;21.408;2023-06-22T02:56:51;100748.41;;;20.77;87.28
78313;BME280;67568;47.438;21.408;2023-06-22T02:59:18;100760.06;;;20.76;87.47
78313;BME280;67568;47.438;21.408;2023-06-22T03:01:47;100750.88;;;20.79;87.25
78313;BME280;67568;47.438;21.408;2023-06-22T03:04:16;100746.31;;;20.74;87.55
78313;BME280;67568;47.438;21.408;2023-06-22T03:06:43;100764.25;;;20.82;87.08
78313;BME280;67568;47.438;21.408;2023-06-22T03:09:10;100763.78;;;20.80;87.21
78313;BME280;67568;47.438;21.408;2023-06-22T03:11:37;100759.69;;;20.77;87.96
78313;BME280;67568;47.438;21.408;2023-06-22T03:14:04;100761.44;;;20.82;87.47
78313;BME280;67568;47.438;21.408;2023-06-22T03:16:30;100771.25;;;20.88;87.58
78313;BME280;67568;47.438;21.408;2023-06-22T03:18:57;100772.44;;;20.87;87.12
78313;BME280;67568;47.438;21.408;2023-06-22T03:21:28;100775.97;;;20.84;87.26
78313;BME280;67568;47.438;21.408;2023-06-22T03:23:55;100778.31;;;20.82;87.02
78313;BME280;67568;47.438;21.408;2023-06-22T03:26:22;100774.31;;;20.83;87.32
78313;BME280;67568;47.438;21.408;2023-06-22T03:28:49;100788.88;;;20.85;86.76
78313;BME280;67568;47.438;21.408;2023-06-22T03:31:16;100806.97;;;20.84;87.06
78313;BME280;67568;47.438;21.408;2023-06-22T03:33:43;100812.94;;;20.82;86.82
78313;BME280;67568;47.438;21.408;2023-06-22T03:36:10;100821.84;;;20.84;86.60
78313;BME280;67568;47.438;21.408;2023-06-22T03:38:37;100819.13;;;20.88;86.42
78313;BME280;67568;47.438;21.408;2023-06-22T03:41:05;100811.88;;;20.87;86.70
78313;BME280;67568;47.438;21.408;2023-06-22T03:43:32;100816.31;;;20.88;86.05
78313;BME280;67568;47.438;21.408;2023-06-22T03:46:02;100817.25;;;20.92;86.65
78313;BME280;67568;47.438;21.408;2023-06-22T03:48:30;100827.78;;;20.95;86.33
78313;BME280;67568;47.438;21.408;2023-06-22T03:51:02;100831.97;;;21.01;86.31
78313;BME280;67568;47.438;21.408;2023-06-22T03:53:32;100830.69;;;20.99;86.56
78313;BME280;67568;47.438;21.408;2023-06-22T03:55:59;100829.63;;;21.03;86.47
78313;BME280;67568;47.438;21.408;2023-06-22T03:58:31;100826.34;;;21.01;86.72
78313;BME280;67568;47.438;21.408;2023-06-22T04:01:12;100810.59;;;21.00;86.07
78313;BME280;67568;47.438;21.408;2023-06-22T04:03:39;100812.78;;;21.07;86.39
78313;BME280;67568;47.438;21.408;2023-06-22T04:06:06;100819.25;;;21.07;86.14
78313;BME280;67568;47.438;21.408;2023-06-22T04:08:33;100821.81;;;21.13;86.36
78313;BME280;67568;47.438;21.408;2023-06-22T04:10:59;100832.16;;;21.08;86.30
78313;BME280;67568;47.438;21.408;2023-06-22T04:13:26;100832.88;;;21.05;87.13
78313;BME280;67568;47.438;21.408;2023-06-22T04:16:31;100820.31;;;21.03;86.44
78313;BME280;67568;47.438;21.408;2023-06-22T04:19:10;100825.09;;;21.15;86.12
78313;BME280;67568;47.438;21.408;2023-06-22T04:21:38;100814.16;;;21.13;86.11
78313;BME280;67568;47.438;21.408;2023-06-22T04:24:05;100815.91;;;21.18;86.48
78313;BME280;67568;47.438;21.408;2023-06-22T04:26:31;100822.09;;;21.23;85.98
78313;BME280;67568;47.438;21.408;2023-06-22T04:28:58;100814.53;;;21.27;85.94
78313;BME280;67568;47.438;21.408;2023-06-22T04:31:25;100823.28;;;21.38;85.56
78313;BME280;67568;47.438;21.408;2023-06-22T04:33:56;100821.84;;;21.44;85.38
78313;BME280;67568;47.438;21.408;2023-06-22T04:36:22;100822.28;;;21.46;84.92
78313;BME280;67568;47.438;21.408;2023-06-22T04:39:17;100820.28;;;21.47;84.46
78313;BME280;67568;47.438;21.408;2023-06-22T04:42:00;100828.56;;;21.55;83.99
78313;BME280;67568;47.438;21.408;2023-06-22T04:44:41;100826.81;;;21.51;84.11
78313;BME280;67568;47.438;21.408;2023-06-22T04:47:29;100829.38;;;21.56;84.01
78313;BME280;67568;47.438;21.408;2023-06-22T04:49:57;100816.53;;;21.59;84.93
78313;BME280;67568;47.438;21.408;2023-06-22T04:52:54;100819.72;;;21.57;84.96
78313;BME280;67568;47.438;21.408;2023-06-22T04:55:21;100825.91;;;21.63;84.55
78313;BME280;67568;47.438;21.408;2023-06-22T04:57:51;100830.81;;;21.66;84.58
78313;BME280;67568;47.438;21.408;2023-06-22T05:00:19;100834.81;;;21.65;83.87
78313;BME280;67568;47.438;21.408;2023-06-22T05:03:09;100812.09;;;21.58;84.62
78313;BME280;67568;47.438;21.408;2023-06-22T05:05:45;100814.19;;;21.61;83.68
78313;BME280;67568;47.438;21.408;2023-06-22T05:08:13;100799.34;;;21.64;83.47
78313;BME280;67568;47.438;21.408;2023-06-22T05:10:40;100800.41;;;21.75;83.22
78313;BME280;67568;47.438;21.408;2023-06-22T05:13:33;100796.97;;;22.01;82.12
78313;BME280;67568;47.438;21.408;2023-06-22T05:16:37;100797.09;;;22.24;80.73
78313;BME280;67568;47.438;21.408;2023-06-22T05:19:14;100812.22;;;22.16;81.81
78313;BME280;67568;47.438;21.408;2023-06-22T05:21:59;100812.78;;;22.06;82.39
78313;BME280;67568;47.438;21.408;2023-06-22T05:24:26;100816.72;;;22.01;82.61
78313;BME280;67568;47.438;21.408;2023-06-22T05:26:58;100826.28;;;21.96;82.86
78313;BME280;67568;47.438;21.408;2023-06-22T05:29:26;100820.22;;;21.94;82.71
78313;BME280;67568;47.438;21.408;2023-06-22T05:31:53;100822.94;;;21.91;82.71
78313;BME280;67568;47.438;21.408;2023-06-22T05:34:20;100829.38;;;21.91;82.87
78313;BME280;67568;47.438;21.408;2023-06-22T05:37:05;100828.22;;;21.92;83.39
78313;BME280;67568;47.438;21.408;2023-06-22T05:39:32;100836.41;;;21.97;82.50
78313;BME280;67568;47.438;21.408;2023-06-22T05:41:59;100832.13;;;22.04;82.22
78313;BME280;67568;47.438;21.408;2023-06-22T05:44:26;100826.00;;;22.01;82.69
78313;BME280;67568;47.438;21.408;2023-06-22T05:46:53;100837.38;;;22.21;82.09
78313;BME280;67568;47.438;21.408;2023-06-22T05:49:19;100831.84;;;22.28;81.44
78313;BME280;67568;47.438;21.408;2023-06-22T05:51:46;100839.31;;;22.36;81.38
78313;BME280;67568;47.438;21.408;2023-06-22T05:54:16;100842.75;;;22.45;81.11
78313;BME280;67568;47.438;21.408;2023-06-22T05:56:43;100850.16;;;22.54;80.91
78313;BME280;67568;47.438;21.408;2023-06-22T05:59:13;100845.00;;;22.79;80.18
78313;BME280;67568;47.438;21.408;2023-06-22T06:01:40;100854.59;;;22.94;79.75
78313;BME280;67568;47.438;21.408;2023-06-22T06:04:07;100841.66;;;22.93;79.27
78313;BME280;67568;47.438;21.408;2023-06-22T06:06:34;100853.50;;;22.98;78.90
78313;BME280;67568;47.438;21.408;2023-06-22T06:09:01;100856.19;;;22.91;78.55
78313;BME280;67568;47.438;21.408;2023-06-22T06:11:28;100859.38;;;22.89;78.41
78313;BME280;67568;47.438;21.408;2023-06-22T06:13:55;100858.03;;;22.83;77.23
78313;BME280;67568;47.438;21.408;2023-06-22T06:16:25;100868.59;;;22.86;77.18
78313;BME280;67568;47.438;21.408;2023-06-22T06:18:52;100855.78;;;22.93;76.82
78313;BME280;67568;47.438;21.408;2023-06-22T06:21:19;100867.03;;;22.89;76.78
78313;BME280;67568;47.438;21.408;2023-06-22T06:23:45;100867.84;;;22.89;76.31
78313;BME280;67568;47.438;21.408;2023-06-22T06:26:12;100865.75;;;22.86;76.54
78313;BME280;67568;47.438;21.408;2023-06-22T06:28:39;100860.13;;;22.86;77.25
78313;BME280;67568;47.438;21.408;2023-06-22T06:31:06;100867.84;;;22.89;76.92
78313;BME280;67568;47.438;21.408;2023-06-22T06:33:33;100859.91;;;22.95;76.67
78313;BME280;67568;47.438;21.408;2023-06-22T06:35:59;100855.91;;;23.19;75.63
78313;BME280;67568;47.438;21.408;2023-06-22T06:38:26;100863.78;;;23.29;75.23
78313;BME280;67568;47.438;21.408;2023-06-22T06:40:54;100874.13;;;23.45;74.37
78313;BME280;67568;47.438;21.408;2023-06-22T06:43:20;100873.25;;;23.64;74.68
78313;BME280;67568;47.438;21.408;2023-06-22T06:45:47;100870.94;;;23.69;73.54
78313;BME280;67568;47.438;21.408;2023-06-22T06:48:17;100877.59;;;23.81;74.01
78313;BME280;67568;47.438;21.408;2023-06-22T06:50:44;100864.66;;;23.79;72.91
78313;BME280;67568;47.438;21.408;2023-06-22T06:53:11;100864.44;;;23.69;73.80
78313;BME280;67568;47.438;21.408;2023-06-22T06:55:38;100879.22;;;23.82;73.02
78313;BME280;67568;47.438;21.408;2023-06-22T06:58:05;100864.13;;;23.97;72.79
78313;BME280;67568;47.438;21.408;2023-06-22T07:00:32;100875.69;;;24.15;73.18
78313;BME280;67568;47.438;21.408;2023-06-22T07:02:59;100867.38;;;23.99;74.31
78313;BME280;67568;47.438;21.408;2023-06-22T07:05:25;100863.88;;;24.09;74.05
78313;BME280;67568;47.438;21.408;2023-06-22T07:07:52;100866.84;;;24.16;73.31
78313;BME280;67568;47.438;21.408;2023-06-22T07:10:19;100873.84;;;24.26;73.06
78313;BME280;67568;47.438;21.408;2023-06-22T07:12:46;100871.53;;;24.35;72.96
78313;BME280;67568;47.438;21.408;2023-06-22T07:15:13;100871.06;;;24.30;72.75
78313;BME280;67568;47.438;21.408;2023-06-22T07:17:40;100876.06;;;24.40;72.60
78313;BME280;67568;47.438;21.408;2023-06-22T07:20:08;100869.06;;;24.60;72.25
78313;BME280;67568;47.438;21.408;2023-06-22T07:22:35;100875.25;;;24.69;72.09
78313;BME280;67568;47.438;21.408;2023-06-22T07:25:02;100876.59;;;24.79;71.75
78313;BME280;67568;47.438;21.408;2023-06-22T07:27:29;100863.69;;;24.82;71.67
78313;BME280;67568;47.438;21.408;2023-06-22T07:29:56;100863.78;;;24.92;71.90
78313;BME280;67568;47.438;21.408;2023-06-22T07:32:23;100874.47;;;25.06;71.15
78313;BME280;67568;47.438;21.408;2023-06-22T07:34:50;100867.38;;;25.23;70.18
78313;BME280;67568;47.438;21.408;2023-06-22T07:37:17;100878.06;;;25.37;70.36
78313;BME280;67568;47.438;21.408;2023-06-22T07:39:44;100869.66;;;25.48;70.26
78313;BME280;67568;47.438;21.408;2023-06-22T07:42:10;100870.47;;;25.48;70.30
78313;BME280;67568;47.438;21.408;2023-06-22T07:44:37;100873.41;;;25.63;70.15
78313;BME280;67568;47.438;21.408;2023-06-22T07:47:06;100882.47;;;25.79;68.99
78313;BME280;67568;47.438;21.408;2023-06-22T07:49:32;100880.44;;;25.76;68.79
78313;BME280;67568;47.438;21.408;2023-06-22T07:51:59;100872.44;;;25.92;68.41
78313;BME280;67568;47.438;21.408;2023-06-22T07:54:26;100874.50;;;25.95;68.45
78313;BME280;67568;47.438;21.408;2023-06-22T07:56:53;100877.03;;;26.08;67.54
78313;BME280;67568;47.438;21.408;2023-06-22T07:59:20;100883.63;;;26.26;67.02
78313;BME280;67568;47.438;21.408;2023-06-22T08:01:48;100872.41;;;26.47;66.72
78313;BME280;67568;47.438;21.408;2023-06-22T08:04:16;100882.13;;;26.46;67.35
78313;BME280;67568;47.438;21.408;2023-06-22T08:06:46;100875.72;;;26.60;66.90
78313;BME280;67568;47.438;21.408;2023-06-22T08:09:13;100883.06;;;26.65;66.49
78313;BME280;67568;47.438;21.408;2023-06-22T08:11:40;100886.72;;;26.65;66.57
78313;BME280;67568;47.438;21.408;2023-06-22T08:14:07;100888.81;;;26.79;66.24
78313;BME280;67568;47.438;21.408;2023-06-22T08:16:34;100884.31;;;26.75;65.65
78313;BME280;67568;47.438;21.408;2023-06-22T08:19:00;100889.59;;;26.80;65.59
78313;BME280;67568;47.438;21.408;2023-06-22T08:21:27;100886.81;;;26.98;65.04
78313;BME280;67568;47.438;21.408;2023-06-22T08:23:54;100893.78;;;27.11;64.62
78313;BME280;67568;47.438;21.408;2023-06-22T08:26:21;100893.78;;;27.11;65.39
78313;BME280;67568;47.438;21.408;2023-06-22T08:28:48;100897.03;;;27.13;63.68
78313;BME280;67568;47.438;21.408;2023-06-22T08:31:16;100890.19;;;27.28;63.87
78313;BME280;67568;47.438;21.408;2023-06-22T08:33:43;100891.03;;;27.50;62.75
78313;BME280;67568;47.438;21.408;2023-06-22T08:36:15;100890.22;;;27.61;62.45
78313;BME280;67568;47.438;21.408;2023-06-22T08:38:42;100891.44;;;27.56;62.47
78313;BME280;67568;47.438;21.408;2023-06-22T08:41:08;100886.16;;;27.51;61.86
78313;BME280;67568;47.438;21.408;2023-06-22T08:43:35;100885.75;;;27.42;61.91
78313;BME280;67568;47.438;21.408;2023-06-22T08:46:02;100897.84;;;27.13;61.97
78313;BME280;67568;47.438;21.408;2023-06-22T08:48:29;100886.84;;;27.12;62.29
78313;BME280;67568;47.438;21.408;2023-06-22T08:50:55;100888.09;;;27.11;61.97
78313;BME280;67568;47.438;21.408;2023-06-22T08:53:22;100885.75;;;27.45;60.87
78313;BME280;67568;47.438;21.408;2023-06-22T08:55:49;100880.84;;;27.46;59.57
78313;BME280;67568;47.438;21.408;2023-06-22T08:58:16;100879.22;;;27.45;59.57
78313;BME280;67568;47.438;21.408;2023-06-22T09:00:43;100886.09;;;27.29;60.08
78313;BME280;67568;47.438;21.408;2023-06-22T09:03:10;100874.38;;;27.52;59.70
78313;BME280;67568;47.438;21.408;2023-06-22T09:05:37;100875.56;;;27.48;60.87
78313;BME280;67568;47.438;21.408;2023-06-22T09:08:04;100882.88;;;27.49;60.57
78313;BME280;67568;47.438;21.408;2023-06-22T09:10:30;100885.75;;;27.56;59.75
78313;BME280;67568;47.438;21.408;2023-06-22T09:12:58;100888.59;;;27.67;59.87
78313;BME280;67568;47.438;21.408;2023-06-22T09:15:24;100891.03;;;27.61;60.16
78313;BME280;67568;47.438;21.408;2023-06-22T09:17:51;100885.75;;;27.67;60.25
78313;BME280;67568;47.438;21.408;2023-06-22T09:20:18;100884.13;;;27.76;60.09
78313;BME280;67568;47.438;21.408;2023-06-22T09:22:45;100884.91;;;27.66;60.33
78313;BME280;67568;47.438;21.408;2023-06-22T09:25:12;100884.94;;;27.70;60.10
78313;BME280;67568;47.438;21.408;2023-06-22T09:27:39;100884.13;;;27.62;60.51
78313;BME280;67568;47.438;21.408;2023-06-22T09:30:06;100885.75;;;27.70;60.42
78313;BME280;67568;47.438;21.408;2023-06-22T09:32:33;100874.34;;;27.74;60.56
78313;BME280;67568;47.438;21.408;2023-06-22T09:35:04;100884.53;;;27.57;60.46
78313;BME280;67568;47.438;21.408;2023-06-22T09:37:31;100876.38;;;27.38;60.87
78313;BME280;67568;47.438;21.408;2023-06-22T09:39:58;100877.22;;;27.56;60.17
78313;BME280;67568;47.438;21.408;2023-06-22T09:42:25;100878.81;;;27.46;60.48
78313;BME280;67568;47.438;21.408;2023-06-22T09:44:51;100877.59;;;27.51;60.30
78313;BME280;67568;47.438;21.408;2023-06-22T09:47:18;100871.91;;;27.65;59.95
78313;BME280;67568;47.438;21.408;2023-06-22T09:49:45;100877.63;;;27.72;59.51
78313;BME280;67568;47.438;21.408;2023-06-22T09:52:15;100869.06;;;27.69;59.82
78313;BME280;67568;47.438;21.408;2023-06-22T09:54:42;100872.34;;;27.89;59.28
78313;BME280;67568;47.438;21.408;2023-06-22T09:57:08;100875.19;;;27.96;58.85
78313;BME280;67568;47.438;21.408;2023-06-22T09:59:35;100868.25;;;28.00;58.80
78313;BME280;67568;47.438;21.408;2023-06-22T10:02:02;100863.00;;;27.95;58.61
78313;BME280;67568;47.438;21.408;2023-06-22T10:04:29;100865.84;;;27.85;59.58
78313;BME280;67568;47.438;21.408;2023-06-22T10:06:56;100868.25;;;27.97;58.92
78313;BME280;67568;47.438;21.408;2023-06-22T10:09:23;100867.84;;;28.02;58.72
78313;BME280;67568;47.438;21.408;2023-06-22T10:11:50;100865.78;;;28.13;58.14
78313;BME280;67568;47.438;21.408;2023-06-22T10:14:17;100861.28;;;28.19;58.15
78313;BME280;67568;47.438;21.408;2023-06-22T10:16:44;100863.31;;;28.30;57.45
78313;BME280;67568;47.438;21.408;2023-06-22T10:19:10;100860.84;;;28.32;57.68
78313;BME280;67568;47.438;21.408;2023-06-22T10:21:37;100864.09;;;28.34;57.10
78313;BME280;67568;47.438;21.408;2023-06-22T10:24:04;100857.56;;;28.40;57.60
78313;BME280;67568;47.438;21.408;2023-06-22T10:26:35;100851.84;;;28.51;56.85
78313;BME280;67568;47.438;21.408;2023-06-22T10:29:03;100857.97;;;28.53;56.81
78313;BME280;67568;47.438;21.408;2023-06-22T10:31:32;100853.09;;;28.43;57.23
78313;BME280;67568;47.438;21.408;2023-06-22T10:33:59;100849.44;;;28.46;57.00
78313;BME280;67568;47.438;21.408;2023-06-22T10:36:26;100853.09;;;28.50;57.34
78313;BME280;67568;47.438;21.408;2023-06-22T10:38:56;100850.59;;;28.66;57.21
78313;BME280;67568;47.438;21.408;2023-06-22T10:41:26;100846.53;;;28.64;57.37
78313;BME280;67568;47.438;21.408;2023-06-22T10:43:52;100849.78;;;28.59;57.67
78313;BME280;67568;47.438;21.408;2023-06-22T10:46:26;100838.28;;;28.77;56.37
78313;BME280;67568;47.438;21.408;2023-06-22T10:48:53;100839.94;;;28.78;56.25
78313;BME280;67568;47.438;21.408;2023-06-22T10:51:20;100838.28;;;28.84;55.98
78313;BME280;67568;47.438;21.408;2023-06-22T10:53:47;100848.47;;;28.81;56.53
78313;BME280;67568;47.438;21.408;2023-06-22T10:56:14;100846.41;;;28.85;56.40
78313;BME280;67568;47.438;21.408;2023-06-22T10:58:41;100847.22;;;28.82;56.60
78313;BME280;67568;47.438;21.408;2023-06-22T11:01:08;100846.34;;;28.96;56.15
78313;BME280;67568;47.438;21.408;2023-06-22T11:03:57;100855.31;;;28.98;56.15
78313;BME280;67568;47.438;21.408;2023-06-22T11:06:26;100848.25;;;29.17;55.26
78313;BME280;67568;47.438;21.408;2023-06-22T11:08:59;100850.38;;;29.09;54.84
78313;BME280;67568;47.438;21.408;2023-06-22T11:11:28;100838.91;;;29.17;55.72
78313;BME280;67568;47.438;21.408;2023-06-22T11:13:56;100845.03;;;29.11;55.31
78313;BME280;67568;47.438;21.408;2023-06-22T11:16:22;100841.31;;;29.22;55.25
78313;BME280;67568;47.438;21.408;2023-06-22T11:18:55;100843.72;;;29.27;54.74
78313;BME280;67568;47.438;21.408;2023-06-22T11:21:22;100844.94;;;29.29;54.86
78313;BME280;67568;47.438;21.408;2023-06-22T11:23:49;100841.22;;;29.36;54.44
78313;BME280;67568;47.438;21.408;2023-06-22T11:26:15;100838.03;;;29.27;54.21
78313;BME280;67568;47.438;21.408;2023-06-22T11:28:42;100840.00;;;29.33;54.37
78313;BME280;67568;47.438;21.408;2023-06-22T11:31:09;100826.50;;;29.41;54.03
78313;BME280;67568;47.438;21.408;2023-06-22T11:33:51;100837.78;;;29.55;52.90
78313;BME280;67568;47.438;21.408;2023-06-22T11:36:18;100838.19;;;29.57;52.55
78313;BME280;67568;47.438;21.408;2023-06-22T11:38:45;100839.75;;;29.62;52.24
78313;BME280;67568;47.438;21.408;2023-06-22T11:41:12;100841.78;;;29.69;51.93
78313;BME280;67568;47.438;21.408;2023-06-22T11:43:39;100836.09;;;29.69;51.54
78313;BME280;67568;47.438;21.408;2023-06-22T11:46:06;100828.78;;;29.57;52.28
78313;BME280;67568;47.438;21.408;2023-06-22T11:48:33;100830.38;;;29.69;51.78
78313;BME280;67568;47.438;21.408;2023-06-22T11:50:59;100835.34;;;29.54;51.18
78313;BME280;67568;47.438;21.408;2023-06-22T11:53:26;100830.63;;;29.33;51.95
78313;BME280;67568;47.438;21.408;2023-06-22T11:55:53;100832.75;;;29.22;51.69
78313;BME280;67568;47.438;21.408;2023-06-22T11:58:21;100813.28;;;29.02;52.80
78313;BME280;67568;47.438;21.408;2023-06-22T12:00:48;100816.75;;;29.35;51.42
78313;BME280;67568;47.438;21.408;2023-06-22T12:03:18;100823.97;;;29.50;50.44
78313;BME280;67568;47.438;21.408;2023-06-22T12:05:45;100817.69;;;29.70;49.48
78313;BME280;67568;47.438;21.408;2023-06-22T12:08:12;100822.97;;;29.75;49.17
78313;BME280;67568;47.438;21.408;2023-06-22T12:10:38;100823.44;;;29.66;49.76
78313;BME280;67568;47.438;21.408;2023-06-22T12:13:05;100810.19;;;29.38;50.01
78313;BME280;67568;47.438;21.408;2023-06-22T12:15:32;100812.25;;;29.34;49.83
78313;BME280;67568;47.438;21.408;2023-06-22T12:17:59;100801.72;;;29.27;50.23
78313;BME280;67568;47.438;21.408;2023-06-22T12:20:26;100805.25;;;29.42;49.98
78313;BME280;67568;47.438;21.408;2023-06-22T12:22:53;100803.78;;;29.75;49.41
78313;BME280;67568;47.438;21.408;2023-06-22T12:25:20;100797.47;;;29.91;49.45
78313;BME280;67568;47.438;21.408;2023-06-22T12:27:46;100796.94;;;30.03;49.78
78313;BME280;67568;47.438;21.408;2023-06-22T12:30:13;100791.44;;;29.86;49.65
78313;BME280;67568;47.438;21.408;2023-06-22T12:32:40;100797.41;;;29.98;49.79
78313;BME280;67568;47.438;21.408;2023-06-22T12:35:07;100792.59;;;29.88;49.75
78313;BME280;67568;47.438;21.408;2023-06-22T12:37:34;100791.44;;;29.86;49.28
78313;BME280;67568;47.438;21.408;2023-06-22T12:40:01;100786.06;;;29.46;49.02
78313;BME280;67568;47.438;21.408;2023-06-22T12:42:28;100792.06;;;29.59;49.62
78313;BME280;67568;47.438;21.408;2023-06-22T12:44:55;100787.88;;;29.74;49.46
78313;BME280;67568;47.438;21.408;2023-06-22T12:47:21;100789.78;;;29.85;48.92
78313;BME280;67568;47.438;21.408;2023-06-22T12:49:48;100791.28;;;29.96;48.89
78313;BME280;67568;47.438;21.408;2023-06-22T12:52:15;100790.41;;;30.03;47.73
78313;BME280;67568;47.438;21.408;2023-06-22T12:54:42;100788.88;;;29.95;47.29
78313;BME280;67568;47.438;21.408;2023-06-22T12:57:20;100794.94;;;29.97;46.54
78313;BME280;67568;47.438;21.408;2023-06-22T12:59:48;100779.84;;;30.00;47.38
78313;BME280;67568;47.438;21.408;2023-06-22T13:02:15;100770.47;;;29.96;46.76
78313;BME280;67568;47.438;21.408;2023-06-22T13:04:43;100768.06;;;29.94;46.35
78313;BME280;67568;47.438;21.408;2023-06-22T13:07:10;100774.03;;;30.07;46.25
78313;BME280;67568;47.438;21.408;2023-06-22T13:09:51;100776.81;;;30.14;45.84
78313;BME280;67568;47.438;21.408;2023-06-22T13:12:21;100772.25;;;30.20;46.28
78313;BME280;67568;47.438;21.408;2023-06-22T13:14:48;100763.25;;;30.22;46.33
78313;BME280;67568;47.438;21.408;2023-06-22T13:17:23;100761.13;;;30.30;46.39
78313;BME280;67568;47.438;21.408;2023-06-22T13:19:50;100752.66;;;30.19;46.67
78313;BME280;67568;47.438;21.408;2023-06-22T13:22:33;100748.22;;;30.14;46.02
78313;BME280;67568;47.438;21.408;2023-06-22T13:25:02;100748.16;;;30.21;46.53
78313;BME280;67568;47.438;21.408;2023-06-22T13:27:30;100740.38;;;30.22;46.11
78313;BME280;67568;47.438;21.408;2023-06-22T13:29:56;100740.00;;;30.20;46.12
78313;BME280;67568;47.438;21.408;2023-06-22T13:32:26;100737.53;;;30.22;45.47
78313;BME280;67568;47.438;21.408;2023-06-22T13:34:54;100735.81;;;30.28;46.34
78313;BME280;67568;47.438;21.408;2023-06-22T13:37:20;100732.91;;;30.32;45.98